Time;durP1;ratioP1;P1;durP2;ratioP2;P2;SDS_P1;SDS_P2;PMS_P1;PMS_P2;Temp;Humidity;BMP_temperature;BMP_pressure;BME280_temperature;BME280_humidity;BME280_pressure;Samples;Min_cycle;Max_cycle;Signal;HPM_P1;HPM_P2
2023/02/11 00:01:51;;;;;;;23.05;8.63;;;6.00;99.90;;;;;;5088849;28;20048;-79
2023/02/11 00:04:16;;;;;;;29.88;14.05;;;6.00;99.90;;;;;;5072663;28;20035;-79
2023/02/11 00:06:42;;;;;;;23.48;11.35;;;6.00;99.90;;;;;;5071620;28;20074;-79
2023/02/11 00:09:08;;;;;;;21.52;11.05;;;6.00;99.90;;;;;;5067052;28;20040;-79
2023/02/11 00:11:34;;;;;;;38.97;19.30;;;6.00;99.90;;;;;;5071822;28;20085;-79
2023/02/11 00:14:01;;;;;;;35.72;18.23;;;6.00;99.90;;;;;;5085912;28;20032;-79
2023/02/11 00:16:27;;;;;;;30.80;13.00;;;5.90;99.90;;;;;;5071934;28;20043;-78
2023/02/11 00:18:53;;;;;;;29.88;14.18;;;6.00;99.90;;;;;;5068279;28;20385;-78
2023/02/11 00:21:23;;;;;;;45.55;21.65;;;5.90;99.90;;;;;;5073085;28;20110;-79
2023/02/11 00:23:49;;;;;;;21.50;8.07;;;5.90;99.90;;;;;;5051269;28;20090;-79
2023/02/11 00:26:17;;;;;;;24.20;12.50;;;6.00;99.90;;;;;;5081710;28;20513;-78
2023/02/11 00:28:42;;;;;;;37.35;21.10;;;5.90;99.90;;;;;;5085377;28;20055;-78
2023/02/11 00:31:08;;;;;;;33.95;18.45;;;5.90;99.90;;;;;;5085465;28;20487;-78
2023/02/11 00:33:33;;;;;;;37.03;15.77;;;5.90;99.90;;;;;;5083967;28;20043;-78
2023/02/11 00:36:06;;;;;;;23.48;10.13;;;6.00;99.90;;;;;;5086237;28;20032;-79
2023/02/11 00:38:32;;;;;;;31.67;14.20;;;6.00;99.90;;;;;;5062931;28;20035;-78
2023/02/11 00:40:57;;;;;;;38.35;20.13;;;5.90;99.90;;;;;;5067174;28;20410;-79
2023/02/11 00:43:23;;;;;;;30.77;15.05;;;5.90;99.90;;;;;;5084598;28;20408;-79
2023/02/11 00:45:51;;;;;;;27.38;14.23;;;5.90;99.90;;;;;;5082299;28;20081;-79
2023/02/11 00:48:17;;;;;;;23.98;13.15;;;6.00;99.90;;;;;;5067201;28;20039;-79
2023/02/11 00:50:42;;;;;;;16.05;7.72;;;5.90;99.90;;;;;;5042219;28;20128;-79
2023/02/11 00:53:08;;;;;;;30.77;17.42;;;6.00;99.90;;;;;;5053869;28;20032;-79
2023/02/11 00:55:34;;;;;;;16.33;7.40;;;6.00;99.90;;;;;;5068852;28;20055;-79
2023/02/11 00:57:59;;;;;;;33.65;17.45;;;5.90;99.90;;;;;;5068219;28;20043;-79
2023/02/11 01:00:25;;;;;;;30.92;16.70;;;6.00;99.90;;;;;;5068895;28;20496;-79
2023/02/11 01:02:51;;;;;;;22.65;10.20;;;6.00;99.90;;;;;;5084098;28;20404;-78
2023/02/11 01:05:17;;;;;;;22.67;11.65;;;6.10;99.90;;;;;;5065643;28;20120;-78
2023/02/11 01:07:42;;;;;;;26.27;13.45;;;6.10;99.90;;;;;;5048850;28;20044;-79
2023/02/11 01:10:09;;;;;;;20.45;9.65;;;6.00;99.90;;;;;;5048863;28;20036;-78
2023/02/11 01:12:34;;;;;;;24.08;11.52;;;6.10;99.90;;;;;;5070984;28;20516;-79
2023/02/11 01:15:04;;;;;;;30.27;14.70;;;6.10;99.90;;;;;;5037280;28;20039;-78
2023/02/11 01:17:30;;;;;;;19.80;11.65;;;6.10;99.90;;;;;;5041963;28;20101;-78
2023/02/11 01:19:55;;;;;;;24.25;10.63;;;6.20;99.90;;;;;;5070005;28;20721;-78
2023/02/11 01:22:21;;;;;;;27.23;13.48;;;6.10;99.90;;;;;;5055314;28;20029;-78
2023/02/11 01:24:46;;;;;;;26.27;15.10;;;6.20;99.90;;;;;;5064524;28;20048;-78
2023/02/11 01:27:12;;;;;;;27.23;13.38;;;6.20;99.90;;;;;;5063981;28;20043;-78
2023/02/11 01:29:37;;;;;;;24.27;9.35;;;6.10;99.90;;;;;;5067269;28;20025;-79
2023/02/11 01:32:03;;;;;;;25.23;12.52;;;6.20;99.90;;;;;;5058328;28;20028;-81
2023/02/11 01:34:29;;;;;;;20.30;10.07;;;6.20;99.90;;;;;;5042202;28;20028;-81
2023/02/11 01:36:58;;;;;;;35.97;18.80;;;6.20;99.90;;;;;;5048280;28;20636;-81
2023/02/11 01:39:24;;;;;;;25.27;12.00;;;6.20;99.90;;;;;;5071905;27;20032;-81
2023/02/11 01:41:49;;;;;;;16.77;8.35;;;6.20;99.90;;;;;;5075179;28;20067;-81
2023/02/11 01:44:33;;;;;;;36.08;18.05;;;6.20;99.90;;;;;;5040489;28;20496;-81
2023/02/11 01:46:58;;;;;;;30.88;17.10;;;6.20;99.90;;;;;;5060327;28;20103;-81
2023/02/11 01:49:31;;;;;;;27.00;15.85;;;6.20;99.90;;;;;;5047090;28;20101;-81
2023/02/11 01:52:00;;;;;;;20.75;10.30;;;6.30;99.90;;;;;;5056813;28;20038;-81
2023/02/11 01:57:26;;;;;;;21.50;11.25;;;6.30;99.90;;;;;;5063352;28;20178;-81
2023/02/11 02:00:10;;;;;;;32.70;12.50;;;6.30;99.90;;;;;;5062169;28;20109;-81
2023/02/11 02:02:47;;;;;;;25.05;13.18;;;6.30;99.90;;;;;;5083183;28;20044;-82
2023/02/11 02:05:22;;;;;;;17.50;9.93;;;6.30;99.90;;;;;;5077598;28;20032;-81
2023/02/11 02:08:06;;;;;;;28.60;12.20;;;6.30;99.90;;;;;;5075444;28;20087;-80
2023/02/11 02:10:31;;;;;;;28.00;14.23;;;6.30;99.90;;;;;;5064063;28;20032;-81
2023/02/11 02:12:57;;;;;;;31.45;15.77;;;6.30;99.90;;;;;;5045099;28;20091;-81
2023/02/11 02:15:28;;;;;;;23.50;9.55;;;6.30;99.90;;;;;;5044514;28;20108;-81
2023/02/11 02:17:58;;;;;;;34.15;18.35;;;6.30;99.90;;;;;;5063889;28;20036;-81
2023/02/11 02:20:45;;;;;;;24.05;11.88;;;6.30;99.90;;;;;;5069375;28;20471;-81
2023/02/11 02:23:37;;;;;;;43.33;18.23;;;6.30;99.90;;;;;;5070517;28;20028;-81
2023/02/11 02:26:18;;;;;;;30.63;13.38;;;6.30;99.90;;;;;;5029752;28;20108;-81
2023/02/11 02:29:05;;;;;;;24.13;12.98;;;6.30;99.90;;;;;;5067513;28;20495;-81
2023/02/11 02:31:45;;;;;;;25.33;12.77;;;6.30;99.90;;;;;;5074154;28;20723;-81
2023/02/11 02:34:37;;;;;;;23.38;10.75;;;6.40;99.90;;;;;;5071690;27;20035;-81
2023/02/11 02:37:17;;;;;;;28.45;14.98;;;6.40;99.90;;;;;;5057487;28;20539;-80
2023/02/11 02:39:45;;;;;;;21.35;11.40;;;6.30;99.90;;;;;;5026584;28;20033;-81
2023/02/11 02:42:11;;;;;;;34.30;15.93;;;6.30;99.90;;;;;;5058348;27;20070;-81
2023/02/11 02:44:36;;;;;;;39.97;18.90;;;6.30;99.90;;;;;;5058950;28;20040;-81
2023/02/11 02:47:02;;;;;;;21.83;9.98;;;6.30;99.90;;;;;;5058527;28;20400;-81
2023/02/11 02:49:27;;;;;;;11.27;4.18;;;6.20;99.90;;;;;;5041360;28;20035;-81
2023/02/11 02:52:17;;;;;;;33.28;18.92;;;6.20;99.90;;;;;;5027484;28;20032;-81
2023/02/11 02:55:05;;;;;;;27.63;13.82;;;6.30;99.90;;;;;;5056632;28;20112;-80
2023/02/11 02:57:56;;;;;;;20.95;10.85;;;6.30;99.90;;;;;;5070386;28;20396;-81
2023/02/11 03:00:42;;;;;;;24.15;11.48;;;6.30;99.90;;;;;;5064333;28;20028;-80
2023/02/11 03:03:41;;;;;;;24.92;10.98;;;6.20;99.90;;;;;;5052823;28;20040;-81
2023/02/11 03:06:11;;;;;;;33.00;16.40;;;6.20;99.90;;;;;;5023747;28;20028;-81
2023/02/11 03:08:54;;;;;;;24.92;14.20;;;6.30;99.90;;;;;;5054916;28;20059;-81
2023/02/11 03:11:19;;;;;;;25.80;12.82;;;6.30;99.90;;;;;;5062838;28;20098;-80
2023/02/11 03:13:45;;;;;;;24.63;14.98;;;6.30;99.90;;;;;;5033681;28;20459;-79
2023/02/11 03:16:19;;;;;;;30.27;15.00;;;6.30;99.90;;;;;;5050081;28;20036;-79
2023/02/11 03:18:51;;;;;;;25.10;11.32;;;6.20;99.90;;;;;;5042246;28;20033;-79
2023/02/11 03:21:19;;;;;;;28.52;14.20;;;6.20;99.90;;;;;;5060833;28;20119;-79
2023/02/11 03:23:51;;;;;;;19.10;8.88;;;6.20;99.90;;;;;;5053158;28;20058;-80
2023/02/11 03:26:45;;;;;;;24.50;13.20;;;6.20;99.90;;;;;;5061475;28;20131;-82
2023/02/11 03:29:19;;;;;;;24.67;13.10;;;6.20;99.90;;;;;;5053562;28;20127;-80
2023/02/11 03:32:14;;;;;;;19.58;9.27;;;6.20;99.90;;;;;;5073930;28;20515;-81
2023/02/11 03:34:51;;;;;;;33.90;15.23;;;6.20;99.90;;;;;;5078808;28;20690;-81
2023/02/11 03:37:24;;;;;;;22.83;11.02;;;6.20;99.90;;;;;;5068866;28;20040;-80
2023/02/11 03:40:14;;;;;;;33.08;15.50;;;6.20;99.90;;;;;;5069736;28;20039;-79
2023/02/11 03:42:49;;;;;;;18.17;9.73;;;6.20;99.90;;;;;;5061955;28;20802;-80
2023/02/11 03:45:16;;;;;;;24.70;12.03;;;6.20;99.90;;;;;;5046751;28;20028;-82
2023/02/11 03:47:45;;;;;;;20.75;13.13;;;6.30;99.90;;;;;;5051403;28;20036;-81
2023/02/11 03:50:11;;;;;;;22.80;9.48;;;6.20;99.90;;;;;;5073929;28;20439;-79
2023/02/11 03:52:37;;;;;;;24.98;13.23;;;6.20;99.90;;;;;;5055859;28;20036;-80
2023/02/11 03:55:07;;;;;;;15.57;7.70;;;6.20;99.90;;;;;;5056224;28;20032;-79
2023/02/11 03:57:33;;;;;;;33.80;15.77;;;6.20;99.90;;;;;;5059466;28;20229;-79
2023/02/11 03:59:59;;;;;;;32.08;14.93;;;6.20;99.90;;;;;;5018116;28;20024;-80
2023/02/11 04:02:27;;;;;;;34.90;17.95;;;6.20;99.90;;;;;;5051984;28;20042;-80
2023/02/11 04:04:52;;;;;;;32.17;17.67;;;6.20;99.90;;;;;;5049117;28;20036;-80
2023/02/11 04:07:18;;;;;;;32.85;16.00;;;6.20;99.90;;;;;;5053827;28;20128;-79
2023/02/11 04:09:44;;;;;;;29.77;16.00;;;6.20;99.90;;;;;;5025352;28;20119;-79
2023/02/11 04:12:09;;;;;;;19.10;8.40;;;6.10;99.90;;;;;;5032512;28;20033;-80
2023/02/11 04:14:35;;;;;;;17.98;8.68;;;6.10;99.90;;;;;;5049965;28;20030;-80
2023/02/11 04:17:03;;;;;;;30.98;15.52;;;6.10;99.90;;;;;;5053654;28;20039;-80
2023/02/11 04:19:28;;;;;;;15.68;7.75;;;6.10;99.90;;;;;;5021525;28;20106;-81
2023/02/11 04:21:54;;;;;;;32.03;15.73;;;6.00;99.90;;;;;;5054643;28;20028;-81
2023/02/11 04:24:23;;;;;;;20.13;11.07;;;6.10;99.90;;;;;;5071164;28;20502;-80
2023/02/11 04:26:48;;;;;;;27.95;12.98;;;6.10;99.90;;;;;;5076089;28;20101;-80
2023/02/11 04:29:14;;;;;;;16.33;7.45;;;6.00;99.90;;;;;;5055897;28;20463;-79
2023/02/11 04:31:39;;;;;;;16.55;6.80;;;6.10;99.90;;;;;;5063276;28;20040;-80
2023/02/11 04:34:05;;;;;;;20.88;10.27;;;6.00;99.90;;;;;;5050902;28;20029;-80
2023/02/11 04:36:30;;;;;;;15.68;8.50;;;6.00;99.90;;;;;;5058027;28;20078;-80
2023/02/11 04:38:56;;;;;;;18.90;8.75;;;6.00;99.90;;;;;;5059689;28;20135;-80
2023/02/11 04:41:22;;;;;;;20.75;9.98;;;6.00;99.90;;;;;;5064095;28;20107;-80
2023/02/11 04:43:47;;;;;;;23.13;9.38;;;6.00;99.90;;;;;;5073085;28;20499;-80
2023/02/11 04:46:13;;;;;;;28.40;13.48;;;6.00;99.90;;;;;;5056692;28;20111;-81
2023/02/11 04:48:38;;;;;;;40.70;16.48;;;6.00;99.90;;;;;;5055496;28;20050;-82
2023/02/11 04:51:05;;;;;;;26.90;12.38;;;6.10;99.90;;;;;;5061611;28;20131;-80
2023/02/11 04:53:30;;;;;;;33.22;17.10;;;6.00;99.90;;;;;;5057336;28;20492;-80
2023/02/11 04:55:56;;;;;;;31.42;17.52;;;6.10;99.90;;;;;;5054264;28;20027;-80
2023/02/11 04:58:23;;;;;;;25.60;10.60;;;6.10;99.90;;;;;;5063399;28;20024;-80
2023/02/11 05:00:48;;;;;;;20.25;8.13;;;6.10;99.90;;;;;;5044108;28;20020;-80
2023/02/11 05:03:14;;;;;;;20.70;8.93;;;6.00;99.90;;;;;;5045709;28;20377;-80
2023/02/11 05:05:43;;;;;;;39.90;14.93;;;6.00;99.90;;;;;;5062401;27;20032;-80
2023/02/11 05:08:09;;;;;;;20.85;10.52;;;6.00;99.90;;;;;;5047127;28;20036;-81
2023/02/11 05:10:34;;;;;;;28.40;11.23;;;6.00;99.90;;;;;;5058016;28;20025;-80
2023/02/11 05:13:00;;;;;;;17.48;8.10;;;6.00;99.90;;;;;;5063270;28;20054;-80
2023/02/11 05:15:26;;;;;;;28.15;15.15;;;6.00;99.90;;;;;;5060461;28;20033;-81
2023/02/11 05:17:51;;;;;;;30.40;14.43;;;6.00;99.90;;;;;;5044038;28;20510;-81
2023/02/11 05:20:17;;;;;;;31.20;16.77;;;6.00;99.90;;;;;;5056810;28;20040;-80
2023/02/11 05:22:43;;;;;;;31.48;11.82;;;6.00;99.90;;;;;;5057348;28;20119;-82
2023/02/11 05:25:08;;;;;;;34.25;14.85;;;6.00;99.90;;;;;;5051299;28;20032;-82
2023/02/11 05:27:34;;;;;;;15.95;7.05;;;6.00;99.90;;;;;;5069114;28;20033;-80
2023/02/11 05:29:59;;;;;;;23.00;10.85;;;5.90;99.90;;;;;;5052956;28;20373;-82
2023/02/11 05:32:25;;;;;;;32.40;17.58;;;5.90;99.90;;;;;;5037065;28;20035;-81
2023/02/11 05:34:50;;;;;;;30.92;15.75;;;5.90;99.90;;;;;;5046820;28;20029;-80
2023/02/11 05:37:16;;;;;;;24.63;11.55;;;5.90;99.90;;;;;;5080667;28;20771;-79
2023/02/11 05:39:42;;;;;;;22.73;10.02;;;5.90;99.90;;;;;;5058302;28;20078;-79
2023/02/11 05:42:07;;;;;;;26.88;13.05;;;5.90;99.90;;;;;;5026496;28;20044;-80
2023/02/11 05:44:33;;;;;;;18.10;9.57;;;5.90;99.90;;;;;;5062382;28;20434;-80
2023/02/11 05:46:58;;;;;;;31.35;15.77;;;6.00;99.90;;;;;;5062515;28;20089;-82
2023/02/11 05:49:24;;;;;;;22.20;11.23;;;5.90;99.90;;;;;;5045434;28;20456;-80
2023/02/11 05:51:49;;;;;;;35.08;17.52;;;5.90;99.90;;;;;;5064426;28;20028;-79
2023/02/11 05:54:15;;;;;;;31.45;16.90;;;5.90;99.90;;;;;;5062698;28;20399;-79
2023/02/11 05:56:41;;;;;;;14.60;8.38;;;5.90;99.90;;;;;;5043136;28;20046;-79
2023/02/11 05:59:06;;;;;;;27.60;14.38;;;5.90;99.90;;;;;;5056824;28;20462;-80
2023/02/11 06:01:32;;;;;;;25.90;15.13;;;5.90;99.90;;;;;;5058772;28;20769;-79
2023/02/11 06:03:58;;;;;;;22.63;11.60;;;5.90;99.90;;;;;;5042803;28;20103;-80
2023/02/11 06:06:24;;;;;;;21.83;10.85;;;5.90;99.90;;;;;;5041875;28;20086;-83
2023/02/11 06:08:49;;;;;;;15.20;7.43;;;5.90;99.90;;;;;;5053517;27;20043;-82
2023/02/11 06:11:15;;;;;;;26.33;13.68;;;5.90;99.90;;;;;;5040968;28;20087;-82
2023/02/11 06:13:41;;;;;;;21.58;10.95;;;5.90;99.90;;;;;;5066724;28;20043;-79
2023/02/11 06:16:06;;;;;;;29.95;16.38;;;5.90;99.90;;;;;;5055383;28;20028;-79
2023/02/11 06:18:34;;;;;;;28.27;13.27;;;5.90;99.90;;;;;;5043345;28;20025;-79
2023/02/11 06:21:00;;;;;;;34.80;17.15;;;5.90;99.90;;;;;;5066454;28;20036;-80
2023/02/11 06:23:26;;;;;;;32.13;17.17;;;5.90;99.90;;;;;;5061416;28;20108;-80
2023/02/11 06:25:51;;;;;;;35.75;18.27;;;5.90;99.90;;;;;;5027596;28;20037;-80
2023/02/11 06:28:17;;;;;;;41.38;19.13;;;5.80;99.90;;;;;;5041258;28;20025;-80
2023/02/11 06:30:43;;;;;;;30.83;12.30;;;5.90;99.90;;;;;;5044187;28;20016;-82
2023/02/11 06:33:08;;;;;;;43.85;21.00;;;5.90;99.90;;;;;;5056555;28;20111;-82
2023/02/11 06:35:35;;;;;;;43.70;16.92;;;5.90;99.90;;;;;;5041056;28;20674;-82
2023/02/11 06:38:01;;;;;;;38.28;16.35;;;5.90;99.90;;;;;;5050245;28;20039;-82
2023/02/11 06:40:26;;;;;;;50.28;22.80;;;5.90;99.90;;;;;;5043859;28;20555;-82
2023/02/11 06:42:52;;;;;;;36.50;19.60;;;5.90;99.90;;;;;;5076615;28;20152;-81
2023/02/11 06:45:19;;;;;;;27.95;14.05;;;5.90;99.90;;;;;;5056542;28;20041;-80
2023/02/11 06:47:44;;;;;;;17.27;8.63;;;5.90;99.90;;;;;;5043951;28;20035;-79
2023/02/11 06:50:12;;;;;;;36.83;18.63;;;5.90;99.90;;;;;;5055557;28;20344;-83
2023/02/11 06:52:38;;;;;;;39.72;15.38;;;5.90;99.90;;;;;;5066541;28;20523;-82
2023/02/11 06:55:04;;;;;;;32.38;14.57;;;5.90;99.90;;;;;;5070438;28;20032;-81
2023/02/11 06:57:30;;;;;;;43.50;21.58;;;5.90;99.90;;;;;;5073837;28;20028;-81
2023/02/11 06:59:55;;;;;;;44.08;20.27;;;5.90;99.90;;;;;;5090730;28;20818;-83
2023/02/11 07:02:21;;;;;;;27.20;12.25;;;5.90;99.90;;;;;;5056127;28;20123;-83
2023/02/11 07:04:46;;;;;;;30.73;13.95;;;5.90;99.90;;;;;;5053357;28;20058;-80
2023/02/11 07:07:12;;;;;;;32.88;14.27;;;5.90;99.90;;;;;;5088760;28;20043;-80
2023/02/11 07:09:37;;;;;;;42.08;17.73;;;5.90;99.90;;;;;;5071544;28;20027;-81
2023/02/11 07:12:03;;;;;;;45.90;22.90;;;6.00;99.90;;;;;;5072913;28;20118;-80
2023/02/11 07:14:29;;;;;;;42.70;20.15;;;6.00;99.90;;;;;;5072491;28;20058;-80
2023/02/11 07:16:54;;;;;;;43.88;20.45;;;6.00;99.90;;;;;;5074120;28;20063;-80
2023/02/11 07:19:20;;;;;;;46.95;20.95;;;6.00;99.90;;;;;;5049104;28;20036;-83
2023/02/11 07:21:47;;;;;;;36.25;18.60;;;6.00;99.90;;;;;;5066558;28;20058;-82
2023/02/11 07:24:12;;;;;;;43.75;19.73;;;6.00;99.90;;;;;;5052951;28;20032;-79
2023/02/11 07:26:38;;;;;;;41.85;18.77;;;6.00;99.90;;;;;;5072885;28;20039;-80
2023/02/11 07:29:04;;;;;;;37.38;15.40;;;6.00;99.90;;;;;;5066364;28;20032;-80
2023/02/11 07:31:29;;;;;;;34.80;14.35;;;6.00;99.90;;;;;;5068926;28;20124;-80
2023/02/11 07:33:56;;;;;;;50.00;20.65;;;5.90;99.90;;;;;;5069110;28;20042;-81
2023/02/11 07:36:22;;;;;;;48.72;20.83;;;5.90;99.90;;;;;;5072927;28;20444;-80
2023/02/11 07:38:48;;;;;;;48.25;21.73;;;6.00;99.90;;;;;;5070391;28;20115;-80
2023/02/11 07:41:15;;;;;;;31.65;15.18;;;6.00;99.90;;;;;;5069206;28;20085;-80
2023/02/11 07:43:40;;;;;;;39.92;19.25;;;6.00;99.90;;;;;;5055073;28;20554;-80
2023/02/11 07:46:11;;;;;;;55.67;23.50;;;6.00;99.90;;;;;;5055004;28;20028;-80
2023/02/11 07:48:36;;;;;;;44.30;19.60;;;6.00;99.90;;;;;;5055946;28;20377;-81
2023/02/11 07:51:08;;;;;;;44.92;19.95;;;6.00;99.90;;;;;;5083186;28;20039;-82
2023/02/11 07:53:34;;;;;;;52.47;25.02;;;6.00;99.90;;;;;;5084304;28;20487;-80
2023/02/11 07:56:01;;;;;;;53.05;23.00;;;6.00;99.90;;;;;;5052100;28;20099;-80
2023/02/11 07:58:26;;;;;;;41.83;17.27;;;6.20;99.90;;;;;;5070720;28;20076;-80
2023/02/11 08:00:52;;;;;;;52.75;21.30;;;6.00;99.90;;;;;;5066917;28;20626;-80
2023/02/11 08:03:17;;;;;;;41.17;17.92;;;6.00;99.90;;;;;;5068243;28;20020;-80
2023/02/11 08:05:43;;;;;;;35.65;13.15;;;6.10;99.90;;;;;;5052055;28;20055;-80
2023/02/11 08:08:08;;;;;;;40.75;18.15;;;6.10;99.90;;;;;;5084838;28;20067;-81
2023/02/11 08:10:36;;;;;;;28.85;10.65;;;6.10;99.90;;;;;;5077157;28;20113;-80
2023/02/11 08:13:02;;;;;;;53.92;21.05;;;6.10;99.90;;;;;;5062797;28;20479;-80
2023/02/11 08:15:27;;;;;;;52.85;21.23;;;6.10;99.90;;;;;;5067696;28;20047;-80
2023/02/11 08:17:53;;;;;;;74.32;27.33;;;6.10;99.90;;;;;;5068044;28;20050;-80
2023/02/11 08:20:19;;;;;;;50.97;19.73;;;6.10;99.90;;;;;;5085481;28;20105;-80
2023/02/11 08:22:44;;;;;;;23.50;9.75;;;6.10;99.90;;;;;;5067449;28;20036;-80
2023/02/11 08:25:10;;;;;;;50.58;18.40;;;6.20;99.90;;;;;;5068379;28;20047;-80
2023/02/11 08:27:35;;;;;;;56.72;19.58;;;6.20;99.90;;;;;;5067500;28;20043;-80
2023/02/11 08:30:01;;;;;;;44.08;17.98;;;6.20;99.90;;;;;;5069058;28;20042;-80
2023/02/11 08:32:26;;;;;;;38.97;15.35;;;6.20;99.90;;;;;;5085121;28;20063;-80
2023/02/11 08:34:52;;;;;;;50.88;18.80;;;6.20;99.90;;;;;;5067386;28;20028;-79
2023/02/11 08:37:18;;;;;;;11.23;5.88;;;6.20;99.90;;;;;;5072748;28;20098;-80
2023/02/11 08:39:46;;;;;;;50.97;20.95;;;6.20;99.90;;;;;;5056977;28;20028;-80
2023/02/11 08:42:11;;;;;;;46.03;18.67;;;6.30;99.90;;;;;;5087521;28;20036;-80
2023/02/11 08:44:37;;;;;;;35.88;14.38;;;6.30;99.90;;;;;;5079915;28;20032;-80
2023/02/11 08:47:03;;;;;;;22.20;11.43;;;6.30;99.90;;;;;;5059264;28;20349;-80
2023/02/11 08:49:29;;;;;;;36.58;13.77;;;6.30;99.90;;;;;;5086542;28;20033;-80
2023/02/11 08:51:55;;;;;;;48.88;19.80;;;6.30;99.90;;;;;;5058380;28;20500;-80
2023/02/11 08:54:20;;;;;;;43.13;15.18;;;6.30;99.90;;;;;;5050669;28;20024;-80
2023/02/11 08:56:49;;;;;;;49.45;20.10;;;6.40;99.90;;;;;;5070991;28;20492;-82
2023/02/11 08:59:17;;;;;;;53.15;22.55;;;6.40;99.90;;;;;;5069005;28;20040;-80
2023/02/11 09:01:42;;;;;;;48.38;18.98;;;6.40;99.90;;;;;;5092949;28;20062;-80
2023/02/11 09:04:08;;;;;;;37.92;15.65;;;6.40;99.90;;;;;;5092411;28;20437;-78
2023/02/11 09:06:34;;;;;;;35.92;16.65;;;6.50;99.90;;;;;;5072690;28;20063;-79
2023/02/11 09:09:00;;;;;;;25.08;12.05;;;6.50;99.90;;;;;;5084171;28;20408;-78
2023/02/11 09:11:31;;;;;;;47.28;18.48;;;6.60;99.90;;;;;;5071361;28;20554;-79
2023/02/11 09:13:56;;;;;;;19.70;7.95;;;6.50;99.90;;;;;;5076668;28;20048;-79
2023/02/11 09:16:24;;;;;;;44.47;17.15;;;6.60;99.90;;;;;;5094613;28;20068;-78
2023/02/11 09:18:50;;;;;;;35.05;17.00;;;6.60;99.90;;;;;;5091592;28;20749;-79
2023/02/11 09:21:16;;;;;;;58.45;23.52;;;6.70;99.90;;;;;;5066043;28;20157;-79
2023/02/11 09:23:46;;;;;;;34.92;15.70;;;6.70;99.90;;;;;;5055597;28;20036;-80
2023/02/11 09:26:32;;;;;;;55.63;22.20;;;6.70;99.90;;;;;;5041695;28;20511;-80
2023/02/11 09:28:58;;;;;;;;;;;6.70;99.90;;;;;;5073018;28;20396;-82
2023/02/11 09:31:25;;;;;;;53.87;22.83;;;6.80;99.90;;;;;;5078412;27;19915;-80
2023/02/11 09:33:52;;;;;;;53.30;20.10;;;6.80;99.90;;;;;;5054942;28;20039;-79
2023/02/11 09:36:28;;;;;;;36.65;13.07;;;6.80;99.90;;;;;;5058153;28;20039;-79
2023/02/11 09:38:54;;;;;;;;;;;6.90;99.90;;;;;;5030184;28;20028;-79
2023/02/11 09:41:22;;;;;;;29.00;9.40;;;6.90;99.90;;;;;;5053870;28;20352;-79
2023/02/11 09:43:51;;;;;;;36.05;14.70;;;6.90;99.90;;;;;;5075513;28;20028;-80
2023/02/11 09:46:17;;;;;;;55.50;22.35;;;6.90;99.90;;;;;;5039337;28;20028;-82
2023/02/11 09:48:44;;;;;;;38.60;14.55;;;6.90;99.90;;;;;;5039610;28;20032;-82
2023/02/11 09:51:19;;;;;;;60.60;25.67;;;7.00;99.90;;;;;;5045093;28;20904;-80
2023/02/11 09:53:46;;;;;;;55.53;21.00;;;7.00;99.90;;;;;;5063349;28;20030;-82
2023/02/11 09:56:13;;;;;;;62.85;27.23;;;7.10;99.90;;;;;;5059336;28;20032;-82
2023/02/11 09:58:42;;;;;;;46.22;18.98;;;7.10;99.90;;;;;;5056367;28;20030;-82
2023/02/11 10:01:25;;;;;;;63.05;29.77;;;7.10;99.90;;;;;;5045654;28;20040;-80
2023/02/11 10:04:24;;;;;;;72.78;28.33;;;7.10;99.90;;;;;;5070286;28;20383;-82
2023/02/11 10:06:53;;;;;;;40.97;16.33;;;7.20;99.90;;;;;;5058706;28;20036;-80
2023/02/11 10:09:30;;;;;;;48.97;20.17;;;7.20;99.90;;;;;;5050771;28;20058;-80
2023/02/11 10:12:15;;;;;;;52.13;21.88;;;7.30;99.90;;;;;;5062531;28;20116;-80
2023/02/11 10:14:57;;;;;;;45.22;20.70;;;7.40;99.90;;;;;;5046728;28;20387;-80
2023/02/11 10:17:23;;;;;;;56.30;21.58;;;7.40;99.90;;;;;;5067603;28;20032;-79
2023/02/11 10:20:26;;;;;;;43.42;17.48;;;7.40;99.90;;;;;;5069029;28;20115;-79
2023/02/11 10:23:11;;;;;;;38.72;15.23;;;7.40;99.90;;;;;;5047585;28;20404;-80
2023/02/11 10:25:40;;;;;;;50.70;21.40;;;7.40;99.90;;;;;;5052818;28;20032;-80
2023/02/11 10:28:11;;;;;;;59.72;26.40;;;7.50;99.90;;;;;;5052907;28;20036;-79
2023/02/11 10:30:42;;;;;;;53.10;19.45;;;7.60;99.90;;;;;;5060782;28;20032;-80
2023/02/11 10:33:24;;;;;;;61.53;25.48;;;7.60;99.90;;;;;;5041328;28;20040;-79
2023/02/11 10:35:50;;;;;;;43.42;18.95;;;7.60;99.90;;;;;;5028116;28;20713;-80
2023/02/11 10:38:15;;;;;;;33.08;12.93;;;7.70;99.90;;;;;;5041193;28;20115;-79
2023/02/11 10:40:41;;;;;;;61.95;23.42;;;7.60;99.90;;;;;;5045569;28;20478;-81
2023/02/11 10:43:10;;;;;;;40.42;15.15;;;7.60;99.90;;;;;;5049895;28;20441;-80
2023/02/11 10:45:57;;;;;;;31.50;13.30;;;7.70;99.90;;;;;;5027016;28;20039;-79
2023/02/11 10:48:38;;;;;;;57.58;26.77;;;7.60;99.90;;;;;;5056646;28;20123;-80
2023/02/11 10:51:09;;;;;;;54.28;21.60;;;7.60;99.90;;;;;;5069007;28;20035;-79
2023/02/11 10:53:35;;;;;;;50.30;19.92;;;7.70;99.90;;;;;;5071984;28;20021;-80
2023/02/11 10:56:02;;;;;;;45.53;19.30;;;7.80;99.90;;;;;;5042171;28;20570;-80
2023/02/11 10:58:37;;;;;;;33.50;13.20;;;7.90;99.90;;;;;;5047695;28;20064;-80
2023/02/11 11:01:03;;;;;;;63.10;24.70;;;7.90;99.90;;;;;;5070314;28;20057;-81
2023/02/11 11:03:35;;;;;;;41.28;16.98;;;7.90;99.90;;;;;;5056818;28;20147;-82
2023/02/11 11:06:02;;;;;;;37.67;16.52;;;8.00;99.90;;;;;;5055860;28;20073;-81
2023/02/11 11:08:47;;;;;;;45.78;18.80;;;8.00;99.90;;;;;;5048763;28;20471;-81
2023/02/11 11:11:20;;;;;;;48.80;23.20;;;8.00;99.90;;;;;;5067618;28;20554;-81
2023/02/11 11:13:56;;;;;;;70.70;27.67;;;8.00;99.90;;;;;;5059545;28;20044;-80
2023/02/11 11:16:32;;;;;;;27.70;11.82;;;8.00;99.90;;;;;;5086828;28;20028;-81
2023/02/11 11:19:07;;;;;;;;;;;8.10;99.90;;;;;;5068228;28;20050;-81
2023/02/11 11:21:44;;;;;;;57.92;25.95;;;8.10;99.90;;;;;;5084934;28;19908;-80
2023/02/11 11:24:36;;;;;;;48.10;22.98;;;8.20;99.90;;;;;;5056317;28;20050;-81
2023/02/11 11:27:02;;;;;;;69.30;27.95;;;8.30;99.90;;;;;;5047149;28;20031;-80
2023/02/11 11:29:44;;;;;;;49.40;23.92;;;8.30;99.90;;;;;;5050509;28;20544;-81
2023/02/11 11:32:12;;;;;;;44.35;20.10;;;8.20;99.90;;;;;;5076639;27;20101;-81
2023/02/11 11:34:41;;;;;;;47.65;22.33;;;8.30;99.90;;;;;;5024237;28;20032;-81
2023/02/11 11:37:18;;;;;;;59.45;24.10;;;8.30;99.90;;;;;;5055316;28;20122;-80
2023/02/11 11:39:45;;;;;;;59.10;28.35;;;8.20;99.90;;;;;;5038544;28;20031;-81
2023/02/11 11:43:24;;;;;;;41.22;16.55;;;8.20;99.90;;;;;;5060631;28;20037;-81
2023/02/11 11:45:55;;;;;;;58.95;23.58;;;8.20;99.90;;;;;;4974562;28;20041;-82
2023/02/11 11:48:21;;;;;;;47.53;21.30;;;8.20;99.90;;;;;;5011246;28;20037;-82
2023/02/11 11:50:52;;;;;;;56.40;24.45;;;8.20;99.90;;;;;;5048732;28;20032;-81
2023/02/11 11:53:30;;;;;;;63.75;28.75;;;8.30;99.90;;;;;;5047587;28;20399;-81
2023/02/11 11:56:03;;;;;;;57.92;25.83;;;8.30;99.90;;;;;;5084668;28;20028;-80
2023/02/11 11:58:29;;;;;;;57.65;27.23;;;8.30;99.90;;;;;;5037860;28;20488;-80
2023/02/11 12:01:20;;;;;;;46.17;21.15;;;8.30;99.90;;;;;;5051365;28;20039;-80
2023/02/11 12:04:08;;;;;;;52.88;23.77;;;8.30;99.90;;;;;;5085816;28;20090;-82
2023/02/11 12:06:40;;;;;;;45.60;18.70;;;8.30;99.90;;;;;;5075539;28;20434;-81
2023/02/11 12:09:20;;;;;;;67.45;30.13;;;8.40;99.90;;;;;;5078283;28;20086;-79
2023/02/11 12:12:19;;;;;;;49.63;22.48;;;8.40;99.90;;;;;;5087881;28;20044;-81
2023/02/11 12:15:20;;;;;;;66.53;31.02;;;8.40;99.90;;;;;;5054031;28;20438;-80
2023/02/11 12:18:23;;;;;;;65.10;28.30;;;8.50;99.90;;;;;;5038550;28;20064;-82
2023/02/11 12:21:20;;;;;;;65.80;31.30;;;8.50;99.90;;;;;;5079950;28;20093;-81
2023/02/11 12:24:05;;;;;;;40.33;17.05;;;8.50;99.90;;;;;;5072570;28;20562;-82
2023/02/11 12:26:39;;;;;;;58.15;25.85;;;8.50;99.90;;;;;;5081699;28;20063;-80
2023/02/11 12:29:13;;;;;;;74.47;29.95;;;8.50;99.90;;;;;;5067880;28;20040;-81
2023/02/11 12:31:48;;;;;;;69.20;31.08;;;8.60;99.90;;;;;;5049089;28;20028;-81
2023/02/11 12:34:41;;;;;;;58.55;27.63;;;8.50;99.90;;;;;;5070587;28;20096;-81
2023/02/11 12:37:16;;;;;;;66.28;27.70;;;8.50;99.90;;;;;;5084494;28;20364;-81
2023/02/11 12:40:09;;;;;;;59.65;24.13;;;8.50;99.90;;;;;;5097810;28;20038;-80
2023/02/11 12:45:35;;;;;;;63.83;30.13;;;8.60;99.90;;;;;;5084301;28;20454;-80
2023/02/11 12:48:21;;;;;;;66.88;28.60;;;8.70;99.90;;;;;;5076962;28;20056;-79
2023/02/11 12:50:58;;;;;;;56.72;25.67;;;8.70;99.90;;;;;;5080311;28;20555;-79
2023/02/11 12:53:48;;;;;;;39.25;16.52;;;8.70;99.90;;;;;;5068178;28;20491;-80
2023/02/11 12:56:51;;;;;;;63.42;30.85;;;8.70;99.90;;;;;;5070475;28;20036;-79
2023/02/11 12:59:33;;;;;;;76.03;33.45;;;8.70;99.90;;;;;;5083335;28;20097;-79
2023/02/11 13:01:58;;;;;;;54.60;22.98;;;8.70;99.90;;;;;;5081383;28;20063;-79